createdAt,value
2023-02-06T00:00:19.361Z,35.10
2023-02-06T00:02:48.116Z,34.40
2023-02-06T00:05:16.585Z,33.50
2023-02-06T00:07:44.953Z,27.20
2023-02-06T00:10:13.269Z,36.23
2023-02-06T00:12:41.674Z,39.37
2023-02-06T00:15:11.653Z,40.37
2023-02-06T00:17:40.050Z,39.77
2023-02-06T00:20:09.061Z,32.07
2023-02-06T00:22:37.439Z,29.30
2023-02-06T00:25:05.909Z,35.03
2023-02-06T00:27:34.359Z,33.97
2023-02-06T00:30:02.795Z,38.97
2023-02-06T00:32:32.558Z,31.50
2023-02-06T00:35:00.912Z,26.80
2023-02-06T00:37:29.373Z,38.23
2023-02-06T00:39:57.754Z,28.20
2023-02-06T00:42:26.116Z,34.70
2023-02-06T00:44:54.598Z,24.77
2023-02-06T00:47:22.976Z,31.57
2023-02-06T00:49:52.675Z,29.37
2023-02-06T00:52:21.308Z,37.47
2023-02-06T00:54:49.638Z,36.67
2023-02-06T00:57:17.988Z,44.20
2023-02-06T00:59:46.415Z,37.07
2023-02-06T01:02:14.928Z,35.70
2023-02-06T01:04:43.205Z,25.63
2023-02-06T01:07:18.977Z,39.93
2023-02-06T01:09:47.349Z,36.57
2023-02-06T01:12:15.674Z,28.60
2023-02-06T01:14:44.027Z,37.50
2023-02-06T01:17:12.366Z,31.23
2023-02-06T01:19:40.892Z,37.00
2023-02-06T01:22:09.272Z,32.23
2023-02-06T01:24:39.364Z,33.40
2023-02-06T01:27:07.705Z,33.50
2023-02-06T01:29:36.099Z,36.23
2023-02-06T01:32:04.646Z,36.77
2023-02-06T01:34:33.006Z,44.30
2023-02-06T01:37:01.335Z,44.10
2023-02-06T01:39:29.663Z,37.70
2023-02-06T01:41:59.386Z,31.87
2023-02-06T01:44:27.709Z,31.03
2023-02-06T01:46:57.957Z,28.07
2023-02-06T01:49:26.953Z,39.20
2023-02-06T01:51:55.380Z,35.40
2023-02-06T01:54:23.737Z,35.83
2023-02-06T01:56:53.102Z,34.90
2023-02-06T01:59:22.831Z,22.93
2023-02-06T02:01:51.194Z,28.60
2023-02-06T02:04:20.131Z,36.13
2023-02-06T02:06:48.878Z,28.47
2023-02-06T02:09:17.160Z,29.03
2023-02-06T02:11:45.432Z,28.27
2023-02-06T02:14:14.283Z,26.60
2023-02-06T02:16:44.959Z,29.27
2023-02-06T02:19:28.221Z,31.43
2023-02-06T02:22:11.489Z,33.27
2023-02-06T02:24:48.593Z,29.60
2023-02-06T02:27:31.835Z,31.73
2023-02-06T02:30:05.832Z,35.67
2023-02-06T02:32:45.031Z,33.43
2023-02-06T02:35:27.344Z,35.87
2023-02-06T02:38:05.984Z,31.50
2023-02-06T02:40:37.880Z,26.83
2023-02-06T02:43:07.578Z,28.17
2023-02-06T02:45:37.701Z,24.13
2023-02-06T02:48:06.951Z,27.60
2023-02-06T02:50:36.774Z,26.93
2023-02-06T02:53:05.160Z,24.47
2023-02-06T02:55:33.665Z,29.53
2023-02-06T02:58:02.739Z,28.23
2023-02-06T03:00:31.498Z,26.57
2023-02-06T03:02:59.813Z,24.53
2023-02-06T03:05:28.280Z,27.70
2023-02-06T03:08:02.712Z,23.37
2023-02-06T03:10:34.718Z,22.67
2023-02-06T03:13:05.031Z,26.40
2023-02-06T03:15:35.426Z,26.87
2023-02-06T03:18:05.419Z,24.50
2023-02-06T03:20:34.058Z,32.60
2023-02-06T03:23:03.937Z,26.50
2023-02-06T03:25:32.810Z,27.07
2023-02-06T03:28:01.431Z,25.17
2023-02-06T03:30:29.992Z,24.40
2023-02-06T03:32:59.091Z,20.53
2023-02-06T03:35:28.193Z,26.40
2023-02-06T03:37:56.558Z,23.97
2023-02-06T03:40:26.298Z,18.97
2023-02-06T03:42:56.230Z,29.23
2023-02-06T03:45:26.121Z,25.97
2023-02-06T03:47:54.486Z,29.00
2023-02-06T03:50:23.141Z,20.43
2023-02-06T03:52:51.661Z,27.83
2023-02-06T03:55:21.232Z,29.53
2023-02-06T03:57:52.003Z,23.77
2023-02-06T04:00:20.648Z,27.53
2023-02-06T04:02:49.252Z,40.50
2023-02-06T04:05:18.131Z,19.33
2023-02-06T04:07:46.522Z,24.97
2023-02-06T04:10:14.956Z,35.67
2023-02-06T04:12:43.420Z,27.53
2023-02-06T04:15:13.255Z,21.07
2023-02-06T04:17:57.609Z,23.87
2023-02-06T04:20:28.200Z,21.00
2023-02-06T04:22:56.620Z,27.00
2023-02-06T04:25:25.251Z,30.00
2023-02-06T04:27:53.715Z,36.77
2023-02-06T04:30:23.762Z,25.60
2023-02-06T04:32:52.189Z,27.17
2023-02-06T04:35:20.952Z,27.47
2023-02-06T04:37:49.490Z,26.93
2023-02-06T04:40:18.118Z,23.70
2023-02-06T04:42:46.464Z,28.37
2023-02-06T04:45:15.047Z,20.93
2023-02-06T04:47:45.096Z,25.47
2023-02-06T04:50:13.610Z,21.77
2023-02-06T04:52:42.158Z,20.83
2023-02-06T04:55:10.837Z,30.67
2023-02-06T04:57:39.403Z,23.40
2023-02-06T05:00:09.388Z,23.43
2023-02-06T05:02:39.912Z,20.07
2023-02-06T05:05:10.769Z,23.23
2023-02-06T05:07:39.280Z,27.10
2023-02-06T05:10:08.999Z,18.17
2023-02-06T05:12:37.648Z,24.13
2023-02-06T05:15:06.841Z,20.50
2023-02-06T05:17:35.397Z,21.90
2023-02-06T05:20:03.885Z,23.30
2023-02-06T05:22:34.045Z,25.07
2023-02-06T05:25:02.547Z,20.30
2023-02-06T05:27:31.112Z,25.27
2023-02-06T05:29:59.506Z,20.87
2023-02-06T05:32:27.937Z,27.53
2023-02-06T05:34:56.840Z,25.00
2023-02-06T05:37:25.257Z,24.83
2023-02-06T05:39:55.301Z,16.90
2023-02-06T05:42:23.653Z,24.37
2023-02-06T05:44:52.109Z,20.33
2023-02-06T05:47:20.589Z,22.07
2023-02-06T05:49:49.546Z,20.00
2023-02-06T05:52:17.937Z,24.27
2023-02-06T05:54:46.356Z,18.93
2023-02-06T05:57:16.354Z,21.30
2023-02-06T05:59:44.747Z,24.30
2023-02-06T06:02:13.529Z,23.57
2023-02-06T06:04:41.997Z,24.10
2023-02-06T06:07:10.604Z,22.63
2023-02-06T06:09:39.186Z,26.50
2023-02-06T06:12:07.995Z,34.63
2023-02-06T06:14:37.842Z,24.67
2023-02-06T06:17:06.414Z,36.83
2023-02-06T06:19:34.849Z,32.63
2023-02-06T06:22:03.192Z,27.73
2023-02-06T06:24:31.753Z,25.37
2023-02-06T06:27:00.501Z,23.53
2023-02-06T06:29:29.455Z,25.57
2023-02-06T06:31:59.506Z,24.67
2023-02-06T06:34:28.744Z,28.57
2023-02-06T06:36:57.175Z,30.80
2023-02-06T06:39:25.737Z,25.73
2023-02-06T06:41:54.411Z,30.97
2023-02-06T06:44:23.277Z,27.27
2023-02-06T06:46:52.448Z,38.47
2023-02-06T06:49:22.629Z,34.47
2023-02-06T06:51:51.017Z,26.70
2023-02-06T06:54:20.568Z,27.53
2023-02-06T06:56:49.261Z,34.50
2023-02-06T06:59:17.890Z,32.60
2023-02-06T07:01:46.720Z,24.57
2023-02-06T07:04:15.453Z,44.43
2023-02-06T07:06:45.374Z,22.30
2023-02-06T07:09:14.005Z,22.00
2023-02-06T07:11:43.037Z,27.20
2023-02-06T07:14:11.833Z,24.57
2023-02-06T07:16:40.341Z,25.53
2023-02-06T07:19:09.793Z,24.60
2023-02-06T07:21:39.367Z,23.70
2023-02-06T07:24:09.921Z,36.17
2023-02-06T07:26:38.422Z,33.63
2023-02-06T07:29:06.891Z,19.03
2023-02-06T07:31:35.473Z,40.33
2023-02-06T07:34:03.893Z,24.03
2023-02-06T07:36:33.195Z,27.90
2023-02-06T07:39:01.672Z,27.47
2023-02-06T07:41:31.775Z,21.17
2023-02-06T07:44:00.270Z,24.67
2023-02-06T07:46:29.953Z,28.80
2023-02-06T07:48:59.030Z,27.47
2023-02-06T07:51:27.939Z,25.80
2023-02-06T07:53:56.343Z,33.73
2023-02-06T07:56:25.347Z,25.23
2023-02-06T07:58:55.566Z,34.23
2023-02-06T08:01:24.663Z,27.67
2023-02-06T08:03:53.441Z,23.93
2023-02-06T08:06:24.192Z,28.80
2023-02-06T08:08:52.782Z,29.27
2023-02-06T08:11:21.853Z,27.70
2023-02-06T08:13:51.850Z,38.93
2023-02-06T08:16:22.389Z,25.80
2023-02-06T08:18:50.963Z,25.97
2023-02-06T08:21:20.793Z,30.30
2023-02-06T08:23:49.574Z,32.70
2023-02-06T08:26:18.444Z,30.10
2023-02-06T08:28:47.254Z,34.50
2023-02-06T08:31:16.448Z,36.43
2023-02-06T08:33:46.387Z,29.80
2023-02-06T08:36:15.050Z,31.27
2023-02-06T08:38:43.458Z,27.57
2023-02-06T08:41:22.681Z,36.63
2023-02-06T08:43:51.508Z,36.10
2023-02-06T08:46:20.991Z,32.10
2023-02-06T08:48:50.887Z,26.10
2023-02-06T08:51:19.511Z,29.23
2023-02-06T08:53:47.911Z,31.27
2023-02-06T08:56:16.586Z,31.20
2023-02-06T08:58:45.037Z,28.87
2023-02-06T09:01:14.709Z,30.87
2023-02-06T09:03:43.281Z,33.40
2023-02-06T09:06:13.244Z,26.93
2023-02-06T09:08:41.714Z,34.53
2023-02-06T09:11:10.819Z,36.23
2023-02-06T09:13:39.245Z,40.90
2023-02-06T09:16:08.298Z,26.90
2023-02-06T09:18:36.831Z,31.10
2023-02-06T09:21:06.437Z,39.63
2023-02-06T09:23:36.573Z,27.07
2023-02-06T09:26:04.946Z,28.30
2023-02-06T09:28:33.614Z,34.23
2023-02-06T09:31:02.367Z,29.00
2023-02-06T09:33:31.206Z,30.63
2023-02-06T09:36:03.632Z,29.97
2023-02-06T09:38:32.166Z,33.47
2023-02-06T09:41:02.816Z,31.80
2023-02-06T09:43:31.378Z,38.53
2023-02-06T09:46:00.301Z,34.63
2023-02-06T09:48:29.225Z,34.00
2023-02-06T09:50:59.698Z,25.13
2023-02-06T09:53:30.453Z,29.70
2023-02-06T09:56:03.611Z,29.93
2023-02-06T09:58:38.831Z,28.93
2023-02-06T10:01:07.726Z,24.33
2023-02-06T10:03:39.137Z,31.90
2023-02-06T10:06:11.072Z,31.27
2023-02-06T10:08:40.088Z,26.73
2023-02-06T10:11:11.739Z,31.33
2023-02-06T10:13:40.997Z,27.87
2023-02-06T10:16:11.887Z,36.40
2023-02-06T10:18:41.592Z,32.10
2023-02-06T10:21:12.803Z,21.43
2023-02-06T10:23:43.028Z,26.33
2023-02-06T10:26:17.503Z,21.53
2023-02-06T10:28:46.204Z,27.70
2023-02-06T10:31:18.412Z,27.60
2023-02-06T10:33:49.083Z,26.10
2023-02-06T10:36:23.628Z,16.27
2023-02-06T10:39:07.919Z,20.10
2023-02-06T10:41:39.034Z,20.00
2023-02-06T10:44:10.184Z,23.80
2023-02-06T10:46:40.911Z,19.87
2023-02-06T10:49:12.461Z,21.17
2023-02-06T10:51:42.524Z,19.73
2023-02-06T10:54:13.558Z,19.10
2023-02-06T10:56:44.538Z,16.30
2023-02-06T10:59:15.389Z,16.83
2023-02-06T11:01:44.257Z,23.93
2023-02-06T11:04:15.423Z,24.30
2023-02-06T11:06:45.980Z,23.13
2023-02-06T11:09:14.531Z,23.80
2023-02-06T11:11:48.508Z,17.60
2023-02-06T11:14:18.137Z,16.53
2023-02-06T11:16:46.851Z,20.50
2023-02-06T11:19:19.449Z,19.50
2023-02-06T11:21:50.780Z,19.17
2023-02-06T11:24:21.391Z,20.37
2023-02-06T11:26:52.052Z,19.67
2023-02-06T11:29:21.890Z,15.63
2023-02-06T11:31:51.366Z,18.30
2023-02-06T11:34:23.557Z,20.67
2023-02-06T11:36:53.276Z,17.97
2023-02-06T11:39:27.605Z,21.60
2023-02-06T11:42:01.820Z,20.27
2023-02-06T11:44:30.650Z,20.43
2023-02-06T11:46:59.099Z,14.20
2023-02-06T11:49:29.121Z,21.60
2023-02-06T11:51:59.924Z,17.97
2023-02-06T11:54:29.215Z,23.33
2023-02-06T11:56:58.773Z,16.53
2023-02-06T11:59:30.075Z,22.97
2023-02-06T12:02:01.489Z,16.53
2023-02-06T12:04:30.433Z,20.70
2023-02-06T12:07:00.333Z,19.33
2023-02-06T12:09:28.719Z,20.07
2023-02-06T12:11:59.163Z,18.37
2023-02-06T12:14:29.928Z,23.53
2023-02-06T12:16:59.178Z,23.53
2023-02-06T12:19:31.664Z,21.83
2023-02-06T12:22:02.359Z,14.80
2023-02-06T12:24:32.320Z,17.60
2023-02-06T12:27:01.534Z,16.57
2023-02-06T12:29:32.255Z,20.37
2023-02-06T12:32:04.623Z,22.67
2023-02-06T12:34:43.023Z,21.47
2023-02-06T12:37:14.538Z,15.33
2023-02-06T12:39:43.851Z,19.20
2023-02-06T12:42:29.748Z,21.60
2023-02-06T12:45:01.159Z,14.63
2023-02-06T12:47:31.086Z,17.13
2023-02-06T12:50:00.546Z,16.60
2023-02-06T12:52:31.170Z,19.73
2023-02-06T12:55:02.874Z,17.57
2023-02-06T12:57:32.013Z,18.53
2023-02-06T13:00:09.770Z,15.60
2023-02-06T13:02:52.949Z,10.90
2023-02-06T13:05:23.420Z,16.67
2023-02-06T13:07:52.057Z,19.50
2023-02-06T13:10:20.787Z,19.50
2023-02-06T13:12:54.776Z,18.27
2023-02-06T13:15:25.690Z,13.80
2023-02-06T13:17:55.629Z,16.17
2023-02-06T13:20:24.491Z,18.50
2023-02-06T13:22:53.991Z,16.00
2023-02-06T13:25:55.594Z,12.57
2023-02-06T13:28:42.869Z,17.23
2023-02-06T13:31:23.850Z,16.47
2023-02-06T13:33:52.738Z,14.10
2023-02-06T13:36:26.236Z,14.40
2023-02-06T13:38:57.988Z,15.53
2023-02-06T13:41:33.032Z,14.57
2023-02-06T13:44:05.365Z,13.47
2023-02-06T13:46:59.179Z,8.50
2023-02-06T13:49:38.414Z,16.33
2023-02-06T13:52:08.367Z,15.33
2023-02-06T13:55:00.782Z,20.13
2023-02-06T13:57:40.088Z,13.37
2023-02-06T14:00:12.003Z,14.63
2023-02-06T14:02:42.767Z,11.57
2023-02-06T14:05:12.082Z,15.17
2023-02-06T14:07:50.599Z,19.27
2023-02-06T14:10:23.709Z,13.27
2023-02-06T14:12:56.495Z,19.10
2023-02-06T14:15:28.721Z,15.47
2023-02-06T14:18:02.518Z,15.83
2023-02-06T14:20:33.483Z,18.70
2023-02-06T14:23:06.054Z,14.33
2023-02-06T14:25:39.500Z,17.03
2023-02-06T14:28:10.295Z,17.37
2023-02-06T14:30:39.997Z,14.77
2023-02-06T14:33:13.151Z,14.20
2023-02-06T14:35:45.572Z,17.47
2023-02-06T14:38:31.638Z,16.63
2023-02-06T14:41:02.012Z,14.60
2023-02-06T14:43:31.555Z,14.13
2023-02-06T14:46:07.521Z,17.67
2023-02-06T14:48:39.655Z,14.30
2023-02-06T14:51:08.137Z,17.43
2023-02-06T14:53:37.318Z,15.73
2023-02-06T14:56:09.688Z,21.37
2023-02-06T14:58:38.278Z,19.63
2023-02-06T15:01:13.934Z,15.77
2023-02-06T15:03:44.366Z,16.40
2023-02-06T15:06:14.035Z,16.37
2023-02-06T15:08:49.005Z,15.07
2023-02-06T15:11:22.148Z,11.70
2023-02-06T15:13:51.386Z,16.70
2023-02-06T15:16:26.888Z,16.77
2023-02-06T15:21:56.900Z,14.07
2023-02-06T15:24:38.536Z,23.30
2023-02-06T15:27:09.690Z,17.67
2023-02-06T15:29:38.572Z,16.70
2023-02-06T15:32:10.724Z,14.30
2023-02-06T15:34:40.082Z,13.63
2023-02-06T15:37:23.008Z,14.57
2023-02-06T15:39:52.112Z,18.87
2023-02-06T15:42:20.645Z,21.10
2023-02-06T15:44:49.744Z,21.27
2023-02-06T15:47:18.908Z,13.63
2023-02-06T15:49:47.898Z,17.03
2023-02-06T15:52:17.119Z,22.57
2023-02-06T15:54:46.943Z,15.50
2023-02-06T15:57:22.835Z,25.93
2023-02-06T15:59:51.413Z,18.00
2023-02-06T16:02:22.158Z,13.37
2023-02-06T16:04:52.464Z,22.77
2023-02-06T16:07:21.368Z,16.40
2023-02-06T16:09:53.203Z,14.50
2023-02-06T16:12:22.019Z,14.50
2023-02-06T16:14:54.498Z,18.67
2023-02-06T16:17:29.519Z,18.50
2023-02-06T16:20:03.712Z,20.40
2023-02-06T16:22:32.978Z,18.57
2023-02-06T16:25:15.930Z,16.50
2023-02-06T16:27:45.578Z,13.80
2023-02-06T16:30:20.877Z,17.77
2023-02-06T16:32:49.472Z,14.53
2023-02-06T16:35:18.056Z,16.47
2023-02-06T16:37:46.982Z,16.47
2023-02-06T16:40:16.816Z,17.00
2023-02-06T16:42:47.535Z,16.77
2023-02-06T16:45:18.674Z,21.20
2023-02-06T16:47:47.341Z,22.60
2023-02-06T16:50:15.895Z,17.40
2023-02-06T16:52:49.938Z,16.90
2023-02-06T16:55:22.216Z,20.03
2023-02-06T16:57:52.172Z,11.97
2023-02-06T17:00:21.390Z,13.43
2023-02-06T17:02:52.057Z,21.90
2023-02-06T17:05:20.997Z,15.80
2023-02-06T17:07:50.795Z,18.03
2023-02-06T17:10:21.144Z,17.93
2023-02-06T17:12:49.753Z,20.00
2023-02-06T17:15:18.699Z,22.13
2023-02-06T17:17:47.383Z,13.27
2023-02-06T17:20:21.812Z,20.23
2023-02-06T17:22:50.958Z,14.43
2023-02-06T17:25:21.013Z,13.77
2023-02-06T17:27:49.469Z,20.87
2023-02-06T17:30:18.880Z,13.60
2023-02-06T17:32:47.355Z,19.67
2023-02-06T17:35:15.887Z,13.13
2023-02-06T17:37:44.442Z,12.67
2023-02-06T17:40:14.464Z,24.70
2023-02-06T17:42:44.378Z,16.30
2023-02-06T17:45:12.903Z,15.07
2023-02-06T17:47:41.576Z,19.77
2023-02-06T17:50:19.326Z,16.97
2023-02-06T17:52:48.880Z,20.50
2023-02-06T17:55:18.661Z,17.30
2023-02-06T17:57:48.885Z,15.20
2023-02-06T18:00:18.074Z,13.50
2023-02-06T18:02:46.882Z,20.17
2023-02-06T18:05:15.491Z,19.93
2023-02-06T18:07:43.921Z,13.27
2023-02-06T18:10:12.854Z,17.63
2023-02-06T18:12:41.697Z,17.47
2023-02-06T18:15:13.822Z,21.20
2023-02-06T18:17:42.394Z,16.20
2023-02-06T18:20:12.730Z,23.47
2023-02-06T18:22:42.129Z,19.33
2023-02-06T18:25:10.977Z,19.00
2023-02-06T18:27:40.080Z,23.57
2023-02-06T18:30:09.106Z,25.20
2023-02-06T18:32:40.323Z,17.87
2023-02-06T18:35:09.469Z,19.33
2023-02-06T18:37:38.029Z,19.17
2023-02-06T18:40:07.104Z,20.93
2023-02-06T18:42:54.663Z,26.10
2023-02-06T18:45:26.329Z,19.60
2023-02-06T18:47:56.429Z,26.70
2023-02-06T18:50:25.233Z,25.80
2023-02-06T18:52:53.780Z,29.17
2023-02-06T18:55:22.223Z,20.50
2023-02-06T18:57:50.953Z,21.23
2023-02-06T19:00:20.173Z,30.67
2023-02-06T19:02:48.836Z,31.10
2023-02-06T19:05:19.756Z,26.23
2023-02-06T19:07:50.594Z,25.63
2023-02-06T19:10:19.592Z,18.73
2023-02-06T19:12:48.153Z,23.27
2023-02-06T19:15:16.891Z,25.43
2023-02-06T19:17:45.365Z,18.63
2023-02-06T19:20:14.402Z,19.27
2023-02-06T19:22:44.250Z,24.93
2023-02-06T19:25:14.553Z,19.70
2023-02-06T19:27:43.683Z,20.07
2023-02-06T19:30:13.129Z,25.67
2023-02-06T19:32:42.142Z,26.10
2023-02-06T19:35:12.079Z,25.10
2023-02-06T19:37:40.933Z,25.80
2023-02-06T19:40:11.328Z,24.37
2023-02-06T19:42:40.748Z,29.27
2023-02-06T19:45:09.931Z,23.90
2023-02-06T19:47:38.865Z,23.73
2023-02-06T19:50:07.756Z,32.43
2023-02-06T19:52:36.950Z,24.90
2023-02-06T19:55:05.688Z,20.37
2023-02-06T19:57:37.652Z,22.60
2023-02-06T20:00:08.387Z,17.83
2023-02-06T20:02:37.625Z,21.17
2023-02-06T20:05:06.625Z,29.17
2023-02-06T20:07:35.580Z,17.73
2023-02-06T20:10:07.411Z,20.77
2023-02-06T20:12:38.426Z,30.53
2023-02-06T20:15:07.793Z,20.80
2023-02-06T20:17:36.804Z,17.57
2023-02-06T20:20:07.001Z,20.40
2023-02-06T20:22:37.430Z,25.67
2023-02-06T20:25:07.162Z,23.50
2023-02-06T20:27:37.956Z,18.83
2023-02-06T20:30:07.735Z,17.13
2023-02-06T20:32:36.284Z,20.87
2023-02-06T20:35:04.997Z,18.13
2023-02-06T20:37:33.589Z,23.17
2023-02-06T20:40:02.650Z,20.30
2023-02-06T20:42:32.565Z,18.77
2023-02-06T20:45:02.723Z,29.03
2023-02-06T20:47:33.148Z,20.87
2023-02-06T20:50:02.275Z,17.13
2023-02-06T20:52:32.543Z,26.13
2023-02-06T20:55:01.412Z,16.77
2023-02-06T20:57:30.610Z,26.70
2023-02-06T20:59:59.283Z,24.70
2023-02-06T21:02:30.319Z,22.00
2023-02-06T21:04:58.866Z,23.07
2023-02-06T21:07:27.861Z,26.13
2023-02-06T21:10:02.486Z,26.30
2023-02-06T21:12:31.563Z,24.27
2023-02-06T21:15:03.608Z,25.57
2023-02-06T21:17:33.949Z,26.27
2023-02-06T21:20:03.782Z,36.07
2023-02-06T21:22:33.150Z,29.80
2023-02-06T21:25:01.743Z,20.43
2023-02-06T21:27:33.142Z,23.27
2023-02-06T21:30:02.373Z,25.67
2023-02-06T21:32:31.075Z,20.67
2023-02-06T21:35:00.990Z,25.23
2023-02-06T21:37:29.418Z,24.37
2023-02-06T21:39:57.864Z,25.43
2023-02-06T21:42:27.589Z,26.03
2023-02-06T21:44:56.157Z,24.80
2023-02-06T21:47:25.277Z,24.50
2023-02-06T21:49:53.824Z,24.17
2023-02-06T21:52:23.949Z,18.97
2023-02-06T21:54:52.749Z,30.13
2023-02-06T21:57:21.214Z,28.80
2023-02-06T21:59:50.156Z,23.50
2023-02-06T22:02:18.831Z,23.97
2023-02-06T22:04:47.766Z,27.80
2023-02-06T22:07:17.504Z,23.33
2023-02-06T22:09:47.380Z,21.53
2023-02-06T22:12:15.987Z,24.50
2023-02-06T22:14:44.520Z,25.20
2023-02-06T22:17:12.974Z,21.33
2023-02-06T22:19:43.700Z,24.37
2023-02-06T22:22:13.570Z,23.43
2023-02-06T22:24:44.430Z,26.30
2023-02-06T22:27:14.405Z,35.70
2023-02-06T22:29:42.999Z,26.47
2023-02-06T22:32:11.522Z,25.50
2023-02-06T22:34:40.098Z,29.27
2023-02-06T22:37:08.587Z,42.63
2023-02-06T22:39:36.957Z,34.20
2023-02-06T22:42:05.387Z,23.00
2023-02-06T22:44:35.392Z,30.37
2023-02-06T22:47:04.116Z,26.37
2023-02-06T22:49:33.313Z,28.03
2023-02-06T22:52:30.183Z,34.30
2023-02-06T22:55:00.629Z,28.47
2023-02-06T22:57:31.834Z,29.47
2023-02-06T23:00:01.856Z,34.03
2023-02-06T23:02:30.271Z,27.20
2023-02-06T23:04:58.742Z,29.03
2023-02-06T23:07:27.201Z,31.30
2023-02-06T23:09:55.847Z,23.80
2023-02-06T23:12:30.401Z,31.50
2023-02-06T23:14:58.861Z,30.27
2023-02-06T23:17:29.600Z,22.77
2023-02-06T23:19:58.074Z,26.23
2023-02-06T23:22:27.295Z,24.50
2023-02-06T23:24:55.709Z,27.50
2023-02-06T23:27:25.364Z,24.90
2023-02-06T23:29:53.963Z,26.27
2023-02-06T23:32:22.385Z,28.60
2023-02-06T23:34:52.198Z,28.63
2023-02-06T23:37:20.715Z,25.20
2023-02-06T23:39:49.889Z,27.60
2023-02-06T23:42:18.392Z,34.67
2023-02-06T23:44:46.904Z,29.13
2023-02-06T23:47:15.834Z,30.73
2023-02-06T23:49:44.556Z,30.33
2023-02-06T23:52:14.512Z,32.13
2023-02-06T23:54:43.102Z,36.43
2023-02-06T23:57:14.933Z,29.30
2023-02-06T23:59:43.543Z,26.23
